createdAt,value
2023-03-07T00:00:36.617Z,12.50
2023-03-07T00:08:43.713Z,12.70
2023-03-07T00:16:53.146Z,12.40
2023-03-07T00:24:58.528Z,11.30
2023-03-07T00:33:07.070Z,11.40
2023-03-07T00:41:14.473Z,11.70
2023-03-07T00:49:23.040Z,11.50
2023-03-07T00:57:38.052Z,11.80
2023-03-07T01:05:46.052Z,11.70
2023-03-07T01:13:51.661Z,11.80
2023-03-07T01:21:59.942Z,11.80
2023-03-07T01:30:05.615Z,11.60
2023-03-07T01:38:13.940Z,11.90
2023-03-07T01:46:42.050Z,10.80
2023-03-07T01:54:53.930Z,9.40
2023-03-07T02:03:09.691Z,10.20
2023-03-07T02:11:21.013Z,10.70
2023-03-07T02:19:39.824Z,11.20
2023-03-07T02:27:51.115Z,11.40
2023-03-07T02:35:59.773Z,11.40
2023-03-07T02:44:08.656Z,11.20
2023-03-07T02:52:15.023Z,11.40
2023-03-07T03:00:24.416Z,11.40
2023-03-07T03:08:30.787Z,11.20
2023-03-07T03:16:39.916Z,11.40
2023-03-07T03:24:45.727Z,11.30
2023-03-07T03:32:57.221Z,11.00
2023-03-07T03:41:06.172Z,11.00
2023-03-07T03:49:16.947Z,10.70
2023-03-07T03:57:26.156Z,10.70
2023-03-07T04:05:36.258Z,10.70
2023-03-07T04:13:41.954Z,9.70
2023-03-07T04:21:50.176Z,10.00
2023-03-07T04:29:57.355Z,10.40
2023-03-07T04:38:05.931Z,10.60
2023-03-07T04:46:13.098Z,10.20
2023-03-07T04:54:21.858Z,10.40
2023-03-07T05:02:28.904Z,10.40
2023-03-07T05:10:38.866Z,10.60
2023-03-07T05:18:44.391Z,10.50
2023-03-07T05:26:52.609Z,10.60
2023-03-07T05:34:58.105Z,10.90
2023-03-07T05:43:06.936Z,11.10
2023-03-07T05:51:13.083Z,11.30
2023-03-07T05:59:22.038Z,11.40
2023-03-07T06:07:29.966Z,11.30
2023-03-07T06:15:38.073Z,11.50
2023-03-07T06:23:45.255Z,11.70
2023-03-07T06:31:57.489Z,11.40
2023-03-07T06:40:06.410Z,11.40
2023-03-07T06:48:18.048Z,11.90
2023-03-07T06:56:23.518Z,12.20
2023-03-07T07:04:32.278Z,12.30
2023-03-07T07:12:38.118Z,12.20
2023-03-07T07:20:46.464Z,12.30
2023-03-07T07:28:52.022Z,12.90
2023-03-07T07:37:00.183Z,13.70
2023-03-07T07:45:07.469Z,13.80
2023-03-07T07:53:17.131Z,14.70
2023-03-07T08:01:25.268Z,15.10
2023-03-07T08:09:34.532Z,15.50
2023-03-07T08:17:40.076Z,16.00
2023-03-07T08:25:51.638Z,16.70
2023-03-07T08:33:57.276Z,17.10
2023-03-07T08:42:05.326Z,17.10
2023-03-07T08:50:12.733Z,17.10
2023-03-07T08:58:20.825Z,17.30
2023-03-07T09:06:26.873Z,17.00
2023-03-07T09:14:34.811Z,17.70
2023-03-07T09:22:40.174Z,17.50
2023-03-07T09:30:57.660Z,17.40
2023-03-07T09:39:03.139Z,17.60
2023-03-07T09:47:33.782Z,17.60
2023-03-07T09:55:39.883Z,18.10
2023-03-07T10:03:56.212Z,18.20
2023-03-07T10:12:31.569Z,17.70
2023-03-07T10:20:48.603Z,17.70
2023-03-07T10:28:54.755Z,18.00
2023-03-07T10:37:09.191Z,17.80
2023-03-07T10:45:31.379Z,17.60
2023-03-07T10:53:42.254Z,17.80
2023-03-07T11:01:57.987Z,18.20
2023-03-07T11:10:35.748Z,18.50
2023-03-07T11:18:44.419Z,18.60
2023-03-07T11:26:57.278Z,18.40
2023-03-07T11:35:09.385Z,17.70
2023-03-07T11:43:24.810Z,17.50
2023-03-07T11:51:42.129Z,17.00
2023-03-07T12:00:22.990Z,16.80
2023-03-07T12:08:41.060Z,16.50
2023-03-07T12:16:56.200Z,16.40
2023-03-07T12:25:20.790Z,16.20
2023-03-07T12:33:33.550Z,16.30
2023-03-07T12:41:57.299Z,16.10
2023-03-07T12:50:12.273Z,15.70
2023-03-07T12:58:28.089Z,15.90
2023-03-07T13:06:35.502Z,15.80
2023-03-07T13:14:45.816Z,16.10
2023-03-07T13:23:14.715Z,16.70
2023-03-07T13:31:46.760Z,16.90
2023-03-07T13:40:07.234Z,17.40
2023-03-07T13:48:36.827Z,17.50
2023-03-07T13:56:46.583Z,17.90
2023-03-07T14:04:55.976Z,17.50
2023-03-07T14:13:30.237Z,17.40
2023-03-07T14:21:47.616Z,17.20
2023-03-07T14:29:58.005Z,17.30
2023-03-07T14:38:03.616Z,16.90
2023-03-07T14:46:25.366Z,16.80
2023-03-07T14:54:35.884Z,16.90
2023-03-07T15:02:49.388Z,16.90
2023-03-07T15:10:59.169Z,16.70
2023-03-07T15:19:12.433Z,16.60
2023-03-07T15:27:27.234Z,16.10
2023-03-07T15:35:35.325Z,15.60
2023-03-07T15:43:40.712Z,15.60
2023-03-07T15:51:48.888Z,15.60
2023-03-07T16:00:00.231Z,15.50
2023-03-07T16:08:16.054Z,15.40
2023-03-07T16:16:26.415Z,15.10
2023-03-07T16:24:34.466Z,14.90
2023-03-07T16:32:46.470Z,14.80
2023-03-07T16:40:54.657Z,14.60
2023-03-07T16:49:00.761Z,14.50
2023-03-07T16:57:09.997Z,14.40
2023-03-07T17:05:21.469Z,14.50
2023-03-07T17:13:30.642Z,14.30
2023-03-07T17:21:37.548Z,14.20
2023-03-07T17:29:50.170Z,14.00
2023-03-07T17:38:00.257Z,13.90
2023-03-07T17:46:11.338Z,13.90
2023-03-07T17:54:17.036Z,13.90
2023-03-07T18:02:26.069Z,14.00
2023-03-07T18:10:31.505Z,13.90
2023-03-07T18:18:58.299Z,13.70
2023-03-07T18:27:08.748Z,13.60
2023-03-07T18:35:18.378Z,13.60
2023-03-07T18:43:23.888Z,13.50
2023-03-07T18:51:32.409Z,13.40
2023-03-07T18:59:37.773Z,13.30
2023-03-07T19:07:45.925Z,13.20
2023-03-07T19:15:51.485Z,13.30
2023-03-07T19:24:01.665Z,13.10
2023-03-07T19:32:07.417Z,13.00
2023-03-07T19:40:16.715Z,12.90
2023-03-07T19:48:22.217Z,12.90
2023-03-07T19:56:34.862Z,12.90
2023-03-07T20:04:40.544Z,12.60
2023-03-07T20:12:48.941Z,12.30
2023-03-07T20:20:54.340Z,12.40
2023-03-07T20:29:03.344Z,12.10
2023-03-07T20:37:08.827Z,11.60
2023-03-07T20:45:17.007Z,11.50
2023-03-07T20:53:22.428Z,11.90
2023-03-07T21:01:32.604Z,11.90
2023-03-07T21:09:38.318Z,11.40
2023-03-07T21:17:46.440Z,11.50
2023-03-07T21:25:51.768Z,11.80
2023-03-07T21:34:01.212Z,11.80
2023-03-07T21:42:07.156Z,11.60
2023-03-07T21:50:15.551Z,11.40
2023-03-07T21:58:20.897Z,11.20
2023-03-07T22:06:30.067Z,11.40
2023-03-07T22:14:35.406Z,11.30
2023-03-07T22:22:43.294Z,11.50
2023-03-07T22:30:49.457Z,11.80
2023-03-07T22:38:59.274Z,11.50
2023-03-07T22:47:04.845Z,11.70
2023-03-07T22:55:13.337Z,11.60
2023-03-07T23:03:18.912Z,11.40
2023-03-07T23:11:28.649Z,11.30
2023-03-07T23:19:34.607Z,11.30
2023-03-07T23:27:42.779Z,11.30
2023-03-07T23:35:48.252Z,11.20
2023-03-07T23:44:00.391Z,11.10
2023-03-07T23:52:05.837Z,11.00
